CheckWX is a tool to help pilots better visualize weather data.  It is not intended as a substitute for an official pre-flight weather briefing.

23:46:31 UTC

KHUL METAR
Houlton International Airport
Houlton, Maine, USA
Current

54 mins ago

KHUL 222253Z AUTO 00000KT 10SM CLR 10/04 A3018 RMK AO2 SLP225 T01000039
Observed
Oct-22 @ 22:53 UTC
Visibility
10 SM
Flight Rules
VFR
Cloud Levels
  • Clear skies
Temperature
10°C / 50°F
Dewpoint
C / 39°F
Humidity
67%
Altimeter
30.18" Hg
Pressure
1022.02 hPa
Previous

2 hours ago

KHUL 222153Z AUTO VRB03KT 10SM CLR 10/04 A3019 RMK AO2 SLP229 T01000039
Observed
Oct-22 @ 21:53 UTC
Wind
  • Variable at 3 KTS
Visibility
10 SM
Flight Rules
VFR
Cloud Levels
  • Clear skies
Temperature
10°C / 50°F
Dewpoint
C / 39°F
Humidity
67%
Altimeter
30.19" Hg
Pressure
1022.32 hPa
Previous

3 hours ago

KHUL 222053Z AUTO VRB04KT 10SM CLR 11/04 A3020 RMK AO2 SLP230 T01110039 57008
Observed
Oct-22 @ 20:53 UTC
Wind
  • Variable at 4 KTS
Visibility
10 SM
Flight Rules
VFR
Cloud Levels
  • Clear skies
Temperature
11°C / 52°F
Dewpoint
C / 39°F
Humidity
62%
Altimeter
30.2" Hg
Pressure
1022.72 hPa